sensor_id;sensor_type;location;lat;lon;timestamp;pressure;altitude;pressure_sealevel;temperature;humidity
49759;BME280;70329;45.524;10.194;2023-11-19T00:02:31;100786.53;;;8.70;61.53
49759;BME280;70329;45.524;10.194;2023-11-19T00:04:57;100782.06;;;8.81;60.09
49759;BME280;70329;45.524;10.194;2023-11-19T00:07:23;100785.06;;;8.79;59.98
49759;BME280;70329;45.524;10.194;2023-11-19T00:09:50;100801.44;;;8.79;60.06
49759;BME280;70329;45.524;10.194;2023-11-19T00:12:16;100787.84;;;8.84;59.99
49759;BME280;70329;45.524;10.194;2023-11-19T00:14:43;100783.31;;;8.90;59.29
49759;BME280;70329;45.524;10.194;2023-11-19T00:17:10;100783.53;;;8.88;59.41
49759;BME280;70329;45.524;10.194;2023-11-19T00:19:36;100778.75;;;8.78;60.20
49759;BME280;70329;45.524;10.194;2023-11-19T00:22:03;100771.41;;;8.79;60.16
49759;BME280;70329;45.524;10.194;2023-11-19T00:24:30;100776.53;;;8.75;60.37
49759;BME280;70329;45.524;10.194;2023-11-19T00:26:57;100780.72;;;8.83;59.83
49759;BME280;70329;45.524;10.194;2023-11-19T00:29:23;100776.94;;;8.84;59.88
49759;BME280;70329;45.524;10.194;2023-11-19T00:31:51;100772.38;;;8.73;60.62
49759;BME280;70329;45.524;10.194;2023-11-19T00:34:18;100768.75;;;8.67;60.91
49759;BME280;70329;45.524;10.194;2023-11-19T00:36:48;100768.34;;;8.59;62.04
49759;BME280;70329;45.524;10.194;2023-11-19T00:39:15;100771.91;;;8.59;62.38
49759;BME280;70329;45.524;10.194;2023-11-19T00:41:42;100760.72;;;8.61;61.85
49759;BME280;70329;45.524;10.194;2023-11-19T00:44:09;100754.75;;;8.47;62.94
49759;BME280;70329;45.524;10.194;2023-11-19T00:46:35;100753.84;;;8.58;62.08
49759;BME280;70329;45.524;10.194;2023-11-19T00:49:03;100738.94;;;8.49;63.26
49759;BME280;70329;45.524;10.194;2023-11-19T00:51:30;100745.91;;;8.57;62.13
49759;BME280;70329;45.524;10.194;2023-11-19T00:53:58;100758.66;;;8.51;62.22
49759;BME280;70329;45.524;10.194;2023-11-19T00:56:25;100754.41;;;8.44;62.85
49759;BME280;70329;45.524;10.194;2023-11-19T00:58:52;100762.44;;;8.50;62.63
49759;BME280;70329;45.524;10.194;2023-11-19T01:01:18;100763.22;;;8.46;62.72
49759;BME280;70329;45.524;10.194;2023-11-19T01:03:45;100763.09;;;8.41;62.77
49759;BME280;70329;45.524;10.194;2023-11-19T01:06:12;100770.31;;;8.47;62.59
49759;BME280;70329;45.524;10.194;2023-11-19T01:08:38;100757.97;;;8.61;62.02
49759;BME280;70329;45.524;10.194;2023-11-19T01:11:04;100761.97;;;8.53;62.53
49759;BME280;70329;45.524;10.194;2023-11-19T01:13:31;100754.84;;;8.52;62.58
49759;BME280;70329;45.524;10.194;2023-11-19T01:15:58;100751.63;;;8.55;62.70
49759;BME280;70329;45.524;10.194;2023-11-19T01:18:25;100753.94;;;8.63;61.99
49759;BME280;70329;45.524;10.194;2023-11-19T01:20:51;100752.19;;;8.57;62.33
49759;BME280;70329;45.524;10.194;2023-11-19T01:23:18;100745.56;;;8.70;61.62
49759;BME280;70329;45.524;10.194;2023-11-19T01:25:44;100749.94;;;8.71;61.41
49759;BME280;70329;45.524;10.194;2023-11-19T01:28:10;100747.06;;;8.77;61.22
49759;BME280;70329;45.524;10.194;2023-11-19T01:30:35;100748.31;;;8.70;61.63
49759;BME280;70329;45.524;10.194;2023-11-19T01:33:00;100754.25;;;8.67;62.17
49759;BME280;70329;45.524;10.194;2023-11-19T01:35:27;100751.63;;;8.55;62.90
49759;BME280;70329;45.524;10.194;2023-11-19T01:37:52;100750.28;;;8.58;63.00
49759;BME280;70329;45.524;10.194;2023-11-19T01:40:21;100737.97;;;8.55;63.07
49759;BME280;70329;45.524;10.194;2023-11-19T01:42:47;100743.09;;;8.52;63.51
49759;BME280;70329;45.524;10.194;2023-11-19T01:45:25;100736.28;;;8.54;63.29
49759;BME280;70329;45.524;10.194;2023-11-19T01:47:55;100738.31;;;8.42;64.24
49759;BME280;70329;45.524;10.194;2023-11-19T01:50:23;100728.44;;;8.41;65.08
49759;BME280;70329;45.524;10.194;2023-11-19T01:52:52;100728.53;;;8.30;66.07
49759;BME280;70329;45.524;10.194;2023-11-19T01:55:20;100722.00;;;8.31;65.73
49759;BME280;70329;45.524;10.194;2023-11-19T01:57:49;100724.28;;;8.22;66.76
49759;BME280;70329;45.524;10.194;2023-11-19T02:00:15;100717.91;;;8.16;67.19
49759;BME280;70329;45.524;10.194;2023-11-19T02:02:43;100724.91;;;8.12;67.40
49759;BME280;70329;45.524;10.194;2023-11-19T02:05:11;100728.25;;;8.14;66.81
49759;BME280;70329;45.524;10.194;2023-11-19T02:07:38;100731.41;;;8.23;66.81
49759;BME280;70329;45.524;10.194;2023-11-19T02:10:04;100723.94;;;8.18;67.18
49759;BME280;70329;45.524;10.194;2023-11-19T02:12:32;100720.06;;;8.14;67.90
49759;BME280;70329;45.524;10.194;2023-11-19T02:15:04;100715.81;;;8.07;68.43
49759;BME280;70329;45.524;10.194;2023-11-19T02:17:31;100708.78;;;7.94;69.05
49759;BME280;70329;45.524;10.194;2023-11-19T02:19:58;100704.63;;;7.92;69.35
49759;BME280;70329;45.524;10.194;2023-11-19T02:22:24;100706.34;;;7.81;69.91
49759;BME280;70329;45.524;10.194;2023-11-19T02:24:55;100707.28;;;7.87;69.66
49759;BME280;70329;45.524;10.194;2023-11-19T02:30:17;100692.38;;;7.78;70.77
49759;BME280;70329;45.524;10.194;2023-11-19T02:32:44;100681.81;;;7.81;70.58
49759;BME280;70329;45.524;10.194;2023-11-19T02:35:11;100684.69;;;7.75;70.51
49759;BME280;70329;45.524;10.194;2023-11-19T02:37:38;100680.56;;;7.72;71.12
49759;BME280;70329;45.524;10.194;2023-11-19T02:40:05;100677.81;;;7.72;71.41
49759;BME280;70329;45.524;10.194;2023-11-19T02:42:35;100672.59;;;7.71;71.74
49759;BME280;70329;45.524;10.194;2023-11-19T02:45:02;100667.31;;;7.64;72.09
49759;BME280;70329;45.524;10.194;2023-11-19T02:47:33;100661.28;;;7.62;72.53
49759;BME280;70329;45.524;10.194;2023-11-19T02:50:01;100666.03;;;7.55;73.22
49759;BME280;70329;45.524;10.194;2023-11-19T02:52:28;100662.75;;;7.53;73.34
49759;BME280;70329;45.524;10.194;2023-11-19T02:54:54;100659.72;;;7.66;71.81
49759;BME280;70329;45.524;10.194;2023-11-19T02:57:20;100660.84;;;7.53;72.72
49759;BME280;70329;45.524;10.194;2023-11-19T02:59:47;100660.50;;;7.50;73.39
49759;BME280;70329;45.524;10.194;2023-11-19T03:02:12;100655.72;;;7.57;71.90
49759;BME280;70329;45.524;10.194;2023-11-19T03:04:41;100659.13;;;7.64;71.99
49759;BME280;70329;45.524;10.194;2023-11-19T03:07:08;100656.50;;;7.69;71.49
49759;BME280;70329;45.524;10.194;2023-11-19T03:09:35;100657.25;;;7.65;71.58
49759;BME280;70329;45.524;10.194;2023-11-19T03:12:02;100660.38;;;7.56;72.01
49759;BME280;70329;45.524;10.194;2023-11-19T03:14:29;100665.81;;;7.56;72.31
49759;BME280;70329;45.524;10.194;2023-11-19T03:16:55;100656.81;;;7.56;72.07
49759;BME280;70329;45.524;10.194;2023-11-19T03:19:22;100649.22;;;7.58;72.54
49759;BME280;70329;45.524;10.194;2023-11-19T03:21:48;100653.25;;;7.55;72.39
49759;BME280;70329;45.524;10.194;2023-11-19T03:24:15;100652.69;;;7.53;72.76
49759;BME280;70329;45.524;10.194;2023-11-19T03:26:42;100641.34;;;7.45;73.42
49759;BME280;70329;45.524;10.194;2023-11-19T03:29:09;100651.63;;;7.43;73.81
49759;BME280;70329;45.524;10.194;2023-11-19T03:31:35;100651.50;;;7.49;73.32
49759;BME280;70329;45.524;10.194;2023-11-19T03:34:02;100648.50;;;7.51;73.02
49759;BME280;70329;45.524;10.194;2023-11-19T03:36:35;100646.31;;;7.48;73.02
49759;BME280;70329;45.524;10.194;2023-11-19T03:39:02;100643.66;;;7.53;73.35
49759;BME280;70329;45.524;10.194;2023-11-19T03:41:29;100647.59;;;7.45;73.67
49759;BME280;70329;45.524;10.194;2023-11-19T03:43:55;100644.63;;;7.47;73.77
49759;BME280;70329;45.524;10.194;2023-11-19T03:46:22;100649.06;;;7.36;75.08
49759;BME280;70329;45.524;10.194;2023-11-19T03:48:49;100644.63;;;7.47;74.28
49759;BME280;70329;45.524;10.194;2023-11-19T03:51:17;100635.06;;;7.44;74.26
49759;BME280;70329;45.524;10.194;2023-11-19T03:53:44;100637.78;;;7.44;73.89
49759;BME280;70329;45.524;10.194;2023-11-19T03:56:11;100646.00;;;7.33;75.56
49759;BME280;70329;45.524;10.194;2023-11-19T03:58:39;100628.97;;;7.26;76.23
49759;BME280;70329;45.524;10.194;2023-11-19T04:01:06;100620.56;;;7.27;76.16
49759;BME280;70329;45.524;10.194;2023-11-19T04:03:32;100624.19;;;7.33;75.33
49759;BME280;70329;45.524;10.194;2023-11-19T04:05:59;100623.63;;;7.31;75.48
49759;BME280;70329;45.524;10.194;2023-11-19T04:08:26;100619.81;;;7.32;75.18
49759;BME280;70329;45.524;10.194;2023-11-19T04:10:53;100627.22;;;7.20;76.63
49759;BME280;70329;45.524;10.194;2023-11-19T04:13:19;100629.84;;;7.43;75.33
49759;BME280;70329;45.524;10.194;2023-11-19T04:15:45;100634.75;;;7.29;75.14
49759;BME280;70329;45.524;10.194;2023-11-19T04:18:12;100628.38;;;7.24;76.26
49759;BME280;70329;45.524;10.194;2023-11-19T04:20:39;100629.69;;;7.21;76.32
49759;BME280;70329;45.524;10.194;2023-11-19T04:23:05;100628.09;;;7.09;77.32
49759;BME280;70329;45.524;10.194;2023-11-19T04:25:33;100618.34;;;7.13;77.24
49759;BME280;70329;45.524;10.194;2023-11-19T04:27:59;100614.31;;;7.15;76.92
49759;BME280;70329;45.524;10.194;2023-11-19T04:30:26;100622.88;;;7.07;76.93
49759;BME280;70329;45.524;10.194;2023-11-19T04:32:51;100615.78;;;7.06;77.27
49759;BME280;70329;45.524;10.194;2023-11-19T04:35:17;100612.22;;;7.06;77.62
49759;BME280;70329;45.524;10.194;2023-11-19T04:37:44;100609.69;;;7.16;76.64
49759;BME280;70329;45.524;10.194;2023-11-19T04:40:11;100607.34;;;7.08;76.96
49759;BME280;70329;45.524;10.194;2023-11-19T04:42:37;100594.66;;;7.13;77.15
49759;BME280;70329;45.524;10.194;2023-11-19T04:45:06;100595.28;;;7.03;77.81
49759;BME280;70329;45.524;10.194;2023-11-19T04:47:33;100588.91;;;6.98;78.54
49759;BME280;70329;45.524;10.194;2023-11-19T04:50:00;100592.50;;;6.87;79.46
49759;BME280;70329;45.524;10.194;2023-11-19T04:52:27;100589.06;;;6.91;79.34
49759;BME280;70329;45.524;10.194;2023-11-19T04:54:53;100595.78;;;7.00;78.09
49759;BME280;70329;45.524;10.194;2023-11-19T04:57:20;100590.75;;;7.09;77.19
49759;BME280;70329;45.524;10.194;2023-11-19T04:59:46;100596.38;;;7.02;77.52
49759;BME280;70329;45.524;10.194;2023-11-19T05:02:13;100593.28;;;6.99;77.61
49759;BME280;70329;45.524;10.194;2023-11-19T05:04:45;100588.56;;;7.06;77.44
49759;BME280;70329;45.524;10.194;2023-11-19T05:07:13;100583.41;;;7.10;77.58
49759;BME280;70329;45.524;10.194;2023-11-19T05:09:39;100578.38;;;7.01;77.53
49759;BME280;70329;45.524;10.194;2023-11-19T05:12:07;100585.56;;;7.08;77.53
49759;BME280;70329;45.524;10.194;2023-11-19T05:14:38;100576.13;;;6.98;77.92
49759;BME280;70329;45.524;10.194;2023-11-19T05:17:04;100572.25;;;6.94;77.83
49759;BME280;70329;45.524;10.194;2023-11-19T05:19:31;100569.53;;;6.94;77.80
49759;BME280;70329;45.524;10.194;2023-11-19T05:21:57;100564.06;;;6.94;78.10
49759;BME280;70329;45.524;10.194;2023-11-19T05:24:24;100555.94;;;6.83;78.52
49759;BME280;70329;45.524;10.194;2023-11-19T05:26:51;100563.53;;;6.81;78.39
49759;BME280;70329;45.524;10.194;2023-11-19T05:29:18;100565.66;;;6.79;79.24
49759;BME280;70329;45.524;10.194;2023-11-19T05:31:44;100554.06;;;6.83;79.24
49759;BME280;70329;45.524;10.194;2023-11-19T05:34:11;100565.88;;;6.89;78.68
49759;BME280;70329;45.524;10.194;2023-11-19T05:36:38;100559.97;;;6.80;79.20
49759;BME280;70329;45.524;10.194;2023-11-19T05:39:05;100552.84;;;6.91;78.73
49759;BME280;70329;45.524;10.194;2023-11-19T05:41:32;100559.41;;;6.78;78.92
49759;BME280;70329;45.524;10.194;2023-11-19T05:43:58;100564.13;;;6.83;79.30
49759;BME280;70329;45.524;10.194;2023-11-19T05:46:25;100556.06;;;6.76;79.92
49759;BME280;70329;45.524;10.194;2023-11-19T05:48:53;100556.69;;;6.78;79.72
49759;BME280;70329;45.524;10.194;2023-11-19T05:51:21;100552.41;;;6.71;80.07
49759;BME280;70329;45.524;10.194;2023-11-19T05:53:47;100550.25;;;6.84;78.89
49759;BME280;70329;45.524;10.194;2023-11-19T05:56:16;100551.91;;;6.85;78.54
49759;BME280;70329;45.524;10.194;2023-11-19T05:58:47;100536.25;;;6.64;79.92
49759;BME280;70329;45.524;10.194;2023-11-19T06:01:17;100534.09;;;6.66;78.99
49759;BME280;70329;45.524;10.194;2023-11-19T06:03:43;100538.34;;;6.74;78.47
49759;BME280;70329;45.524;10.194;2023-11-19T06:06:10;100531.28;;;6.61;79.26
49759;BME280;70329;45.524;10.194;2023-11-19T06:08:38;100530.66;;;6.71;78.33
49759;BME280;70329;45.524;10.194;2023-11-19T06:11:05;100532.69;;;6.64;79.23
49759;BME280;70329;45.524;10.194;2023-11-19T06:13:30;100528.31;;;6.63;79.32
49759;BME280;70329;45.524;10.194;2023-11-19T06:15:57;100536.38;;;6.58;79.97
49759;BME280;70329;45.524;10.194;2023-11-19T06:18:22;100537.53;;;6.62;78.41
49759;BME280;70329;45.524;10.194;2023-11-19T06:20:50;100532.34;;;6.60;78.78
49759;BME280;70329;45.524;10.194;2023-11-19T06:23:16;100535.44;;;6.52;79.23
49759;BME280;70329;45.524;10.194;2023-11-19T06:25:43;100529.53;;;6.55;79.50
49759;BME280;70329;45.524;10.194;2023-11-19T06:28:09;100527.28;;;6.52;79.67
49759;BME280;70329;45.524;10.194;2023-11-19T06:30:36;100526.78;;;6.55;79.71
49759;BME280;70329;45.524;10.194;2023-11-19T06:33:02;100530.47;;;6.49;79.60
49759;BME280;70329;45.524;10.194;2023-11-19T06:35:30;100540.41;;;6.43;80.39
49759;BME280;70329;45.524;10.194;2023-11-19T06:38:02;100540.06;;;6.40;80.63
49759;BME280;70329;45.524;10.194;2023-11-19T06:40:32;100539.84;;;6.41;82.65
49759;BME280;70329;45.524;10.194;2023-11-19T06:42:57;100536.50;;;6.51;81.99
49759;BME280;70329;45.524;10.194;2023-11-19T06:45:24;100529.88;;;6.59;80.92
49759;BME280;70329;45.524;10.194;2023-11-19T06:47:50;100538.13;;;6.64;81.20
49759;BME280;70329;45.524;10.194;2023-11-19T06:50:17;100546.31;;;6.64;80.93
49759;BME280;70329;45.524;10.194;2023-11-19T06:52:46;100545.47;;;6.63;80.57
49759;BME280;70329;45.524;10.194;2023-11-19T06:55:12;100555.28;;;6.64;79.72
49759;BME280;70329;45.524;10.194;2023-11-19T06:57:39;100545.09;;;6.71;79.49
49759;BME280;70329;45.524;10.194;2023-11-19T07:00:06;100542.56;;;6.81;78.99
49759;BME280;70329;45.524;10.194;2023-11-19T07:02:33;100543.75;;;6.85;78.00
49759;BME280;70329;45.524;10.194;2023-11-19T07:05:00;100546.06;;;6.93;77.05
49759;BME280;70329;45.524;10.194;2023-11-19T07:07:26;100540.53;;;6.88;77.74
49759;BME280;70329;45.524;10.194;2023-11-19T07:09:53;100541.47;;;6.94;77.33
49759;BME280;70329;45.524;10.194;2023-11-19T07:12:20;100546.06;;;6.93;77.36
49759;BME280;70329;45.524;10.194;2023-11-19T07:14:46;100547.13;;;6.92;77.26
49759;BME280;70329;45.524;10.194;2023-11-19T07:17:13;100550.69;;;6.93;77.48
49759;BME280;70329;45.524;10.194;2023-11-19T07:19:40;100554.19;;;7.05;77.46
49759;BME280;70329;45.524;10.194;2023-11-19T07:22:06;100558.44;;;7.13;77.26
49759;BME280;70329;45.524;10.194;2023-11-19T07:24:33;100560.28;;;7.24;77.32
49759;BME280;70329;45.524;10.194;2023-11-19T07:27:00;100558.25;;;7.31;76.70
49759;BME280;70329;45.524;10.194;2023-11-19T07:29:26;100568.75;;;7.39;77.06
49759;BME280;70329;45.524;10.194;2023-11-19T07:31:53;100567.75;;;7.45;76.96
49759;BME280;70329;45.524;10.194;2023-11-19T07:34:20;100567.34;;;7.53;76.76
49759;BME280;70329;45.524;10.194;2023-11-19T07:36:47;100561.41;;;7.56;76.70
49759;BME280;70329;45.524;10.194;2023-11-19T07:39:14;100551.56;;;7.55;76.90
49759;BME280;70329;45.524;10.194;2023-11-19T07:41:39;100557.44;;;7.63;76.29
49759;BME280;70329;45.524;10.194;2023-11-19T07:44:04;100558.28;;;7.64;76.10
49759;BME280;70329;45.524;10.194;2023-11-19T07:46:30;100562.16;;;7.68;75.22
49759;BME280;70329;45.524;10.194;2023-11-19T07:48:58;100567.44;;;7.75;75.17
49759;BME280;70329;45.524;10.194;2023-11-19T07:51:23;100573.88;;;7.85;74.41
49759;BME280;70329;45.524;10.194;2023-11-19T07:53:49;100567.53;;;7.96;73.53
49759;BME280;70329;45.524;10.194;2023-11-19T07:56:14;100570.44;;;8.06;73.17
49759;BME280;70329;45.524;10.194;2023-11-19T07:58:41;100575.28;;;8.04;73.25
49759;BME280;70329;45.524;10.194;2023-11-19T08:01:09;100570.50;;;8.11;72.69
49759;BME280;70329;45.524;10.194;2023-11-19T08:03:34;100561.81;;;8.14;72.57
49759;BME280;70329;45.524;10.194;2023-11-19T08:06:02;100560.28;;;8.23;72.32
49759;BME280;70329;45.524;10.194;2023-11-19T08:08:29;100556.44;;;8.36;71.31
49759;BME280;70329;45.524;10.194;2023-11-19T08:10:56;100560.69;;;8.49;70.58
49759;BME280;70329;45.524;10.194;2023-11-19T08:13:23;100561.69;;;8.59;70.58
49759;BME280;70329;45.524;10.194;2023-11-19T08:15:50;100563.75;;;8.74;70.22
49759;BME280;70329;45.524;10.194;2023-11-19T08:18:17;100569.88;;;8.81;70.54
49759;BME280;70329;45.524;10.194;2023-11-19T08:20:45;100565.91;;;8.94;71.32
49759;BME280;70329;45.524;10.194;2023-11-19T08:23:12;100573.75;;;9.07;73.80
49759;BME280;70329;45.524;10.194;2023-11-19T08:25:39;100590.22;;;9.17;77.14
49759;BME280;70329;45.524;10.194;2023-11-19T08:28:06;100595.25;;;9.25;77.82
49759;BME280;70329;45.524;10.194;2023-11-19T08:30:32;100586.56;;;9.33;77.58
49759;BME280;70329;45.524;10.194;2023-11-19T08:32:58;100586.22;;;9.24;76.55
49759;BME280;70329;45.524;10.194;2023-11-19T08:35:27;100595.38;;;9.35;75.54
49759;BME280;70329;45.524;10.194;2023-11-19T08:37:53;100581.78;;;9.45;74.97
49759;BME280;70329;45.524;10.194;2023-11-19T08:40:20;100583.50;;;9.51;75.40
49759;BME280;70329;45.524;10.194;2023-11-19T08:42:45;100581.84;;;9.50;76.34
49759;BME280;70329;45.524;10.194;2023-11-19T08:45:11;100580.38;;;9.69;75.60
49759;BME280;70329;45.524;10.194;2023-11-19T08:47:38;100585.88;;;9.74;75.58
49759;BME280;70329;45.524;10.194;2023-11-19T08:50:07;100593.72;;;9.92;75.02
49759;BME280;70329;45.524;10.194;2023-11-19T08:52:34;100590.72;;;9.94;73.86
49759;BME280;70329;45.524;10.194;2023-11-19T08:55:01;100588.59;;;10.01;73.64
49759;BME280;70329;45.524;10.194;2023-11-19T08:57:28;100594.41;;;10.10;74.18
49759;BME280;70329;45.524;10.194;2023-11-19T08:59:55;100591.03;;;9.98;73.86
49759;BME280;70329;45.524;10.194;2023-11-19T09:02:21;100582.97;;;10.13;73.30
49759;BME280;70329;45.524;10.194;2023-11-19T09:04:48;100582.56;;;10.36;71.55
49759;BME280;70329;45.524;10.194;2023-11-19T09:07:14;100577.69;;;10.43;70.29
49759;BME280;70329;45.524;10.194;2023-11-19T09:09:41;100578.06;;;10.57;70.34
49759;BME280;70329;45.524;10.194;2023-11-19T09:12:07;100580.28;;;10.65;68.43
49759;BME280;70329;45.524;10.194;2023-11-19T09:14:32;100581.19;;;10.80;68.71
49759;BME280;70329;45.524;10.194;2023-11-19T09:16:58;100591.59;;;10.78;68.56
49759;BME280;70329;45.524;10.194;2023-11-19T09:19:24;100590.47;;;10.74;68.18
49759;BME280;70329;45.524;10.194;2023-11-19T09:21:55;100594.63;;;10.87;68.18
49759;BME280;70329;45.524;10.194;2023-11-19T09:24:20;100589.50;;;11.00;67.89
49759;BME280;70329;45.524;10.194;2023-11-19T09:26:47;100592.50;;;10.99;67.13
49759;BME280;70329;45.524;10.194;2023-11-19T09:29:13;100585.97;;;11.05;67.30
49759;BME280;70329;45.524;10.194;2023-11-19T09:31:41;100581.88;;;11.13;67.15
49759;BME280;70329;45.524;10.194;2023-11-19T09:34:07;100589.84;;;11.24;66.03
49759;BME280;70329;45.524;10.194;2023-11-19T09:36:34;100578.38;;;11.37;65.69
49759;BME280;70329;45.524;10.194;2023-11-19T09:39:00;100573.47;;;11.44;66.47
49759;BME280;70329;45.524;10.194;2023-11-19T09:41:29;100576.22;;;11.44;65.95
49759;BME280;70329;45.524;10.194;2023-11-19T09:43:57;100579.50;;;11.51;65.62
49759;BME280;70329;45.524;10.194;2023-11-19T09:46:24;100574.56;;;11.53;66.22
49759;BME280;70329;45.524;10.194;2023-11-19T09:48:53;100574.84;;;11.62;67.56
49759;BME280;70329;45.524;10.194;2023-11-19T09:51:21;100573.22;;;11.66;65.78
49759;BME280;70329;45.524;10.194;2023-11-19T09:53:48;100563.59;;;11.53;64.95
49759;BME280;70329;45.524;10.194;2023-11-19T09:56:16;100558.94;;;11.59;64.80
49759;BME280;70329;45.524;10.194;2023-11-19T09:58:45;100557.59;;;11.77;64.41
49759;BME280;70329;45.524;10.194;2023-11-19T10:01:14;100553.44;;;11.59;64.50
49759;BME280;70329;45.524;10.194;2023-11-19T10:03:42;100555.41;;;11.74;64.33
49759;BME280;70329;45.524;10.194;2023-11-19T10:06:10;100555.94;;;11.76;64.10
49759;BME280;70329;45.524;10.194;2023-11-19T10:08:41;100569.97;;;11.69;64.58
49759;BME280;70329;45.524;10.194;2023-11-19T10:11:08;100561.19;;;11.72;64.94
49759;BME280;70329;45.524;10.194;2023-11-19T10:13:37;100554.31;;;11.70;63.76
49759;BME280;70329;45.524;10.194;2023-11-19T10:16:12;100555.41;;;11.79;63.73
49759;BME280;70329;45.524;10.194;2023-11-19T10:18:49;100554.59;;;11.83;62.69
49759;BME280;70329;45.524;10.194;2023-11-19T10:21:19;100543.91;;;11.72;nan
49759;BME280;70329;45.524;10.194;2023-11-19T10:23:55;100530.44;;;11.70;62.61
49759;BME280;70329;45.524;10.194;2023-11-19T10:26:27;100523.53;;;11.62;62.72
49759;BME280;70329;45.524;10.194;2023-11-19T10:28:55;100518.06;;;11.67;62.89
49759;BME280;70329;45.524;10.194;2023-11-19T10:31:22;100529.03;;;11.67;62.91
49759;BME280;70329;45.524;10.194;2023-11-19T10:33:53;100526.31;;;11.73;62.42
49759;BME280;70329;45.524;10.194;2023-11-19T10:36:23;100519.72;;;11.63;61.78
49759;BME280;70329;45.524;10.194;2023-11-19T10:39:03;100523.00;;;11.60;62.52
49759;BME280;70329;45.524;10.194;2023-11-19T10:41:32;100515.31;;;11.57;63.10
49759;BME280;70329;45.524;10.194;2023-11-19T10:43:59;100519.97;;;11.57;63.00
49759;BME280;70329;45.524;10.194;2023-11-19T10:49:04;100496.66;;;11.49;62.86
49759;BME280;70329;45.524;10.194;2023-11-19T10:51:30;100499.97;;;11.46;62.61
49759;BME280;70329;45.524;10.194;2023-11-19T10:54:02;100506.25;;;11.37;61.25
49759;BME280;70329;45.524;10.194;2023-11-19T10:56:35;100512.84;;;11.46;61.74
49759;BME280;70329;45.524;10.194;2023-11-19T10:59:02;100516.94;;;11.53;62.24
49759;BME280;70329;45.524;10.194;2023-11-19T11:01:53;100515.03;;;11.54;63.20
49759;BME280;70329;45.524;10.194;2023-11-19T11:04:22;100508.97;;;11.42;63.77
49759;BME280;70329;45.524;10.194;2023-11-19T11:06:49;100502.69;;;11.51;63.16
49759;BME280;70329;45.524;10.194;2023-11-19T11:09:17;100499.41;;;11.54;62.21
49759;BME280;70329;45.524;10.194;2023-11-19T11:11:47;100493.06;;;11.34;62.81
49759;BME280;70329;45.524;10.194;2023-11-19T11:14:14;100479.38;;;11.29;62.37
49759;BME280;70329;45.524;10.194;2023-11-19T11:16:46;100478.03;;;11.41;61.96
49759;BME280;70329;45.524;10.194;2023-11-19T11:19:13;100487.06;;;11.52;60.99
49759;BME280;70329;45.524;10.194;2023-11-19T11:21:40;100475.81;;;11.53;62.10
49759;BME280;70329;45.524;10.194;2023-11-19T11:32:57;100453.03;;;11.78;61.24
49759;BME280;70329;45.524;10.194;2023-11-19T11:38:09;100464.28;;;11.87;62.53
49759;BME280;70329;45.524;10.194;2023-11-19T11:40:35;100470.34;;;11.89;63.58
49759;BME280;70329;45.524;10.194;2023-11-19T11:43:02;100455.50;;;11.90;63.77
49759;BME280;70329;45.524;10.194;2023-11-19T11:45:40;100454.69;;;11.89;64.34
49759;BME280;70329;45.524;10.194;2023-11-19T11:48:15;100454.13;;;11.87;64.25
49759;BME280;70329;45.524;10.194;2023-11-19T11:50:53;100450.84;;;11.90;64.62
49759;BME280;70329;45.524;10.194;2023-11-19T11:53:20;100452.75;;;11.90;65.51
49759;BME280;70329;45.524;10.194;2023-11-19T11:55:52;100450.56;;;11.87;65.87
49759;BME280;70329;45.524;10.194;2023-11-19T12:00:48;100442.91;;;11.89;66.78
49759;BME280;70329;45.524;10.194;2023-11-19T12:03:14;100435.75;;;11.88;67.47
49759;BME280;70329;45.524;10.194;2023-11-19T12:05:45;100433.81;;;11.93;67.43
49759;BME280;70329;45.524;10.194;2023-11-19T12:08:12;100427.78;;;11.96;67.53
49759;BME280;70329;45.524;10.194;2023-11-19T12:10:50;100425.03;;;11.96;67.21
49759;BME280;70329;45.524;10.194;2023-11-19T12:13:20;100427.50;;;11.93;67.45
49759;BME280;70329;45.524;10.194;2023-11-19T12:16:06;100429.16;;;11.94;67.43
49759;BME280;70329;45.524;10.194;2023-11-19T12:18:33;100430.25;;;11.93;68.40
49759;BME280;70329;45.524;10.194;2023-11-19T12:20:59;100423.94;;;11.92;69.71
49759;BME280;70329;45.524;10.194;2023-11-19T12:23:26;100417.66;;;11.92;70.07
49759;BME280;70329;45.524;10.194;2023-11-19T12:25:53;100415.44;;;11.94;69.85
49759;BME280;70329;45.524;10.194;2023-11-19T12:28:19;100407.75;;;11.96;71.12
49759;BME280;70329;45.524;10.194;2023-11-19T12:30:45;100409.09;;;11.98;71.16
49759;BME280;70329;45.524;10.194;2023-11-19T12:33:16;100412.66;;;12.04;71.86
49759;BME280;70329;45.524;10.194;2023-11-19T12:35:45;100418.41;;;12.07;71.53
49759;BME280;70329;45.524;10.194;2023-11-19T12:38:25;100398.09;;;12.08;71.68
49759;BME280;70329;45.524;10.194;2023-11-19T12:41:07;100386.00;;;12.09;71.50
49759;BME280;70329;45.524;10.194;2023-11-19T12:43:34;100382.44;;;12.14;72.67
49759;BME280;70329;45.524;10.194;2023-11-19T12:46:03;100378.03;;;12.13;73.94
49759;BME280;70329;45.524;10.194;2023-11-19T12:48:29;100380.28;;;12.06;74.41
49759;BME280;70329;45.524;10.194;2023-11-19T12:50:58;100372.84;;;12.06;73.88
49759;BME280;70329;45.524;10.194;2023-11-19T12:53:28;100366.81;;;12.04;75.68
49759;BME280;70329;45.524;10.194;2023-11-19T12:55:55;100354.44;;;12.07;76.33
49759;BME280;70329;45.524;10.194;2023-11-19T12:58:35;100352.50;;;12.12;77.06
49759;BME280;70329;45.524;10.194;2023-11-19T13:01:05;100361.88;;;12.11;77.52
49759;BME280;70329;45.524;10.194;2023-11-19T13:03:36;100354.41;;;12.12;76.92
49759;BME280;70329;45.524;10.194;2023-11-19T13:06:08;100357.47;;;12.10;77.18
49759;BME280;70329;45.524;10.194;2023-11-19T13:08:41;100354.41;;;12.12;77.10
49759;BME280;70329;45.524;10.194;2023-11-19T13:11:08;100360.47;;;12.14;76.49